Time;durP1;ratioP1;P1;durP2;ratioP2;P2;SDS_P1;SDS_P2;PMS_P1;PMS_P2;Temp;Humidity;BMP_temperature;BMP_pressure;BME280_temperature;BME280_humidity;BME280_pressure;Samples;Min_cycle;Max_cycle;Signal;HPM_P1;HPM_P2
2021/01/22 00:01:19;;;;;;;3.05;0.70;;;;;;;9.41;97.06;97865.16;5225116;28;20025;-80
2021/01/22 00:03:50;;;;;;;1.40;0.70;;;;;;;9.50;96.75;97866.25;5224408;28;20040;-80
2021/01/22 00:06:21;;;;;;;0.68;0.50;;;;;;;9.56;96.59;97866.63;5225650;28;20048;-80
2021/01/22 00:08:51;;;;;;;1.52;0.60;;;;;;;9.55;96.64;97861.53;5224875;28;20059;-80
2021/01/22 00:11:21;;;;;;;2.28;0.60;;;;;;;9.58;96.31;97866.50;5224721;28;20085;-80
2021/01/22 00:13:52;;;;;;;1.70;0.70;;;;;;;9.56;96.03;97868.41;5223884;28;20049;-80
2021/01/22 00:16:22;;;;;;;1.83;0.60;;;;;;;9.68;95.52;97868.31;5224829;28;20075;-80
2021/01/22 00:18:52;;;;;;;2.35;0.80;;;;;;;9.70;95.24;97858.63;5224326;28;20035;-80
2021/01/22 00:21:22;;;;;;;0.90;0.50;;;;;;;9.68;95.63;97847.44;5207733;28;20209;-80
2021/01/22 00:23:53;;;;;;;3.78;0.65;;;;;;;9.64;95.88;97843.41;5224139;28;20064;-80
2021/01/22 00:26:23;;;;;;;0.80;0.50;;;;;;;9.64;95.32;97845.22;5224936;28;20025;-80
2021/01/22 00:28:53;;;;;;;1.15;0.52;;;;;;;9.75;94.96;97847.81;5224236;28;20086;-80
2021/01/22 00:31:24;;;;;;;2.40;0.68;;;;;;;9.69;95.06;97828.25;5230268;28;20017;-80
2021/01/22 00:33:54;;;;;;;0.35;0.35;;;;;;;9.93;93.83;97825.53;5225104;28;20032;-80
2021/01/22 00:36:24;;;;;;;1.50;0.57;;;;;;;9.93;93.92;97818.56;5227169;28;20415;-80
2021/01/22 00:38:54;;;;;;;1.65;0.60;;;;;;;9.85;94.67;97818.31;5226380;28;20053;-80
2021/01/22 00:41:25;;;;;;;1.13;0.60;;;;;;;9.82;94.96;97838.59;5226903;28;20025;-80
2021/01/22 00:43:55;;;;;;;1.20;0.50;;;;;;;9.93;94.21;97809.91;5226264;28;20029;-80
2021/01/22 00:46:25;;;;;;;0.90;0.50;;;;;;;9.97;93.72;97806.94;5227284;28;20060;-80
2021/01/22 00:48:55;;;;;;;0.90;0.40;;;;;;;9.96;94.06;97791.44;5226306;28;20446;-80
2021/01/22 00:51:26;;;;;;;1.40;0.60;;;;;;;10.01;93.52;97805.78;5227202;28;20074;-80
2021/01/22 00:53:56;;;;;;;1.48;0.60;;;;;;;10.02;93.57;97799.63;5225895;28;20037;-80
2021/01/22 00:56:26;;;;;;;1.23;0.50;;;;;;;10.13;92.34;97804.03;5226826;28;20033;-80
2021/01/22 00:58:56;;;;;;;0.98;0.50;;;;;;;10.11;92.59;97798.06;5226102;28;20025;-80
2021/01/22 01:01:27;;;;;;;1.23;0.60;;;;;;;10.01;93.64;97795.34;5231295;28;20027;-80
2021/01/22 01:03:57;;;;;;;1.27;0.50;;;;;;;10.13;92.52;97799.63;5227395;28;20036;-80
2021/01/22 01:06:27;;;;;;;1.27;0.55;;;;;;;10.03;93.41;97795.25;5227381;28;20530;-80
2021/01/22 01:08:58;;;;;;;1.38;0.57;;;;;;;9.93;93.33;97781.22;5226459;28;20020;-81
2021/01/22 01:11:28;;;;;;;2.88;0.60;;;;;;;9.74;94.34;97794.84;5226869;28;20025;-80
2021/01/22 01:13:58;;;;;;;1.95;0.60;;;;;;;9.61;95.34;97788.91;5225439;28;20025;-80
2021/01/22 01:16:29;;;;;;;0.90;0.47;;;;;;;9.48;95.57;97787.34;5226387;28;20104;-82
2021/01/22 01:19:00;;;;;;;1.63;0.60;;;;;;;9.63;96.11;97779.19;5226138;28;20487;-80
2021/01/22 01:21:30;;;;;;;1.88;0.63;;;;;;;9.76;95.81;97766.88;5226941;28;20025;-80
2021/01/22 01:24:00;;;;;;;1.40;0.70;;;;;;;9.68;95.83;97781.44;5220202;28;20048;-82
2021/01/22 01:26:31;;;;;;;3.28;0.80;;;;;;;9.69;96.09;97770.06;5225767;28;20116;-84
2021/01/22 01:29:01;;;;;;;1.00;0.50;;;;;;;9.66;96.11;97771.13;5225095;28;20543;-80
2021/01/22 01:31:31;;;;;;;1.65;0.60;;;;;;;9.67;96.47;97758.94;5232109;28;20051;-81
2021/01/22 01:34:02;;;;;;;1.70;0.70;;;;;;;9.58;96.84;97765.69;5227592;28;20021;-80
2021/01/22 01:36:32;;;;;;;1.45;0.80;;;;;;;9.59;97.60;97746.47;5226878;28;20056;-80
2021/01/22 01:39:03;;;;;;;2.05;0.80;;;;;;;9.48;97.92;97745.66;5224726;28;20748;-80
2021/01/22 01:41:33;;;;;;;1.30;0.60;;;;;;;9.54;97.92;97732.13;5226183;28;20032;-80
2021/01/22 01:44:03;;;;;;;3.30;0.80;;;;;;;9.47;98.67;97723.94;5225490;28;20057;-80
2021/01/22 01:46:34;;;;;;;1.98;0.88;;;;;;;9.44;99.50;97724.19;5224447;28;20083;-81
2021/01/22 01:49:04;;;;;;;2.22;0.90;;;;;;;9.56;100.00;97718.03;5226007;28;20020;-79
2021/01/22 01:51:35;;;;;;;1.77;0.80;;;;;;;9.55;100.00;97705.13;5225105;28;20105;-81
2021/01/22 01:54:05;;;;;;;1.98;0.90;;;;;;;9.63;100.00;97700.97;5226103;28;20056;-81
2021/01/22 01:56:36;;;;;;;1.98;0.70;;;;;;;9.53;100.00;97686.16;5225123;28;20036;-81
2021/01/22 01:59:07;;;;;;;1.30;0.80;;;;;;;9.50;100.00;97696.84;5222364;28;20024;-79
2021/01/22 02:01:38;;;;;;;1.25;0.70;;;;;;;9.39;100.00;97692.44;5228573;28;20021;-80
2021/01/22 02:04:09;;;;;;;2.22;0.70;;;;;;;9.31;100.00;97707.00;5238861;28;20021;-82
2021/01/22 02:06:39;;;;;;;3.03;0.80;;;;;;;9.32;100.00;97698.25;5225851;28;20024;-80
2021/01/22 02:09:09;;;;;;;2.83;0.85;;;;;;;9.34;100.00;97701.56;5225867;28;20033;-81
2021/01/22 02:11:40;;;;;;;1.75;0.90;;;;;;;9.36;100.00;97697.91;5226052;28;20021;-81
2021/01/22 02:14:10;;;;;;;2.28;0.80;;;;;;;9.35;100.00;97698.00;5224218;28;20388;-81
2021/01/22 02:16:40;;;;;;;2.90;1.05;;;;;;;9.47;99.34;97695.28;5225321;28;20035;-80
2021/01/22 02:19:12;;;;;;;3.58;0.80;;;;;;;9.64;97.83;97694.00;5224259;28;20028;-80
2021/01/22 02:21:42;;;;;;;1.77;0.70;;;;;;;9.62;97.94;97685.47;5225393;28;20043;-81
2021/01/22 02:24:19;;;;;;;2.58;0.93;;;;;;;9.62;97.14;97685.47;5225727;28;20033;-80
2021/01/22 02:26:56;;;;;;;4.78;0.77;;;;;;;9.54;97.10;97685.22;5225780;28;20060;-81
2021/01/22 02:29:28;;;;;;;1.13;0.60;;;;;;;9.57;96.88;97678.00;5207510;28;20037;-79
2021/01/22 02:32:05;;;;;;;2.33;0.80;;;;;;;9.64;96.15;97673.13;5231542;28;20043;-80
2021/01/22 02:34:39;;;;;;;1.98;0.77;;;;;;;9.70;95.30;97672.66;5224812;28;20028;-80
2021/01/22 02:37:16;;;;;;;3.10;0.82;;;;;;;9.75;94.56;97678.31;5224956;28;20025;-80
2021/01/22 02:39:49;;;;;;;2.58;0.85;;;;;;;9.73;94.35;97675.84;5224925;28;20519;-80
2021/01/22 02:42:22;;;;;;;3.03;1.30;;;;;;;9.70;94.75;97668.28;5225594;28;20021;-80
2021/01/22 02:44:55;;;;;;;1.65;0.80;;;;;;;9.74;94.58;97664.47;5223717;28;20368;-80
2021/01/22 02:47:26;;;;;;;3.78;1.00;;;;;;;9.84;93.90;97673.22;5225635;28;20033;-80
2021/01/22 02:49:57;;;;;;;2.60;0.98;;;;;;;9.81;93.98;97659.59;5225145;28;20032;-80
2021/01/22 02:52:27;;;;;;;1.88;0.82;;;;;;;9.78;93.91;97654.59;5206590;28;20506;-80
2021/01/22 02:54:58;;;;;;;4.25;0.90;;;;;;;9.79;93.37;97661.50;5224255;28;20021;-80
2021/01/22 02:57:37;;;;;;;2.38;0.70;;;;;;;9.75;93.89;97662.69;5224971;28;20053;-80
2021/01/22 03:00:15;;;;;;;3.28;0.80;;;;;;;9.88;93.85;97658.16;5224312;28;20025;-80
2021/01/22 03:02:58;;;;;;;3.97;0.90;;;;;;;9.94;92.85;97648.06;5231426;28;20029;-80
2021/01/22 03:05:31;;;;;;;5.07;1.05;;;;;;;10.04;92.64;97650.81;5225610;28;20505;-80
2021/01/22 03:08:07;;;;;;;2.55;1.00;;;;;;;9.97;93.05;97655.66;5226468;28;20075;-80
2021/01/22 03:10:39;;;;;;;3.88;0.90;;;;;;;9.93;93.21;97651.63;5226519;28;20048;-80
2021/01/22 03:13:11;;;;;;;4.18;1.08;;;;;;;10.05;92.50;97642.03;5225259;28;20029;-80
2021/01/22 03:15:42;;;;;;;4.85;0.98;;;;;;;10.08;92.07;97647.84;5224344;28;20036;-80
2021/01/22 03:18:17;;;;;;;3.20;1.05;;;;;;;10.15;91.32;97648.19;5225320;28;20041;-80
2021/01/22 03:20:48;;;;;;;3.83;1.00;;;;;;;10.12;91.47;97644.03;5226464;28;20538;-80
2021/01/22 03:23:19;;;;;;;4.25;1.10;;;;;;;10.20;90.05;97639.00;5224944;28;20052;-80
2021/01/22 03:25:49;;;;;;;3.60;0.90;;;;;;;10.38;89.86;97634.09;5227546;28;20024;-80
2021/01/22 03:28:19;;;;;;;2.30;0.73;;;;;;;10.30;89.93;97623.44;5226326;28;20656;-80
2021/01/22 03:30:50;;;;;;;5.18;0.98;;;;;;;10.33;89.96;97631.03;5226350;28;20549;-80
2021/01/22 03:33:20;;;;;;;4.30;1.02;;;;;;;10.30;89.58;97626.03;5231081;28;20021;-80
2021/01/22 03:35:50;;;;;;;5.35;1.05;;;;;;;10.24;89.21;97627.38;5224325;28;20052;-80
2021/01/22 03:38:21;;;;;;;3.55;1.00;;;;;;;10.15;90.25;97616.88;5206850;28;20391;-80
2021/01/22 03:40:51;;;;;;;3.38;0.90;;;;;;;10.12;90.66;97609.25;5225484;28;20033;-80
2021/01/22 03:43:21;;;;;;;3.80;1.00;;;;;;;10.09;90.22;97622.56;5224979;28;20037;-80
2021/01/22 03:45:52;;;;;;;2.13;0.90;;;;;;;10.20;89.56;97614.72;5224532;28;20037;-80
2021/01/22 03:48:22;;;;;;;3.80;0.80;;;;;;;10.25;88.65;97617.75;5225515;28;20438;-80
2021/01/22 03:50:53;;;;;;;3.03;1.02;;;;;;;10.22;90.07;97623.25;5225157;28;20035;-80
2021/01/22 03:53:23;;;;;;;4.93;0.73;;;;;;;10.36;89.06;97609.91;5224995;28;20028;-81
2021/01/22 03:55:53;;;;;;;4.28;0.90;;;;;;;10.40;89.15;97608.69;5218212;28;20023;-80
2021/01/22 03:58:24;;;;;;;4.18;1.20;;;;;;;10.24;90.41;97605.66;5223148;28;20086;-81
2021/01/22 04:00:54;;;;;;;4.15;0.90;;;;;;;10.20;90.34;97597.25;5224217;28;20064;-80
2021/01/22 04:03:24;;;;;;;3.15;0.80;;;;;;;10.13;91.55;97590.88;5225223;28;20442;-81
2021/01/22 04:05:56;;;;;;;2.58;0.70;;;;;;;10.09;92.30;97601.69;5223303;28;20024;-79
2021/01/22 04:08:26;;;;;;;5.20;0.88;;;;;;;10.06;91.75;97592.34;5204612;28;20530;-81
2021/01/22 04:10:56;;;;;;;5.00;0.70;;;;;;;9.98;92.36;97599.91;5223018;28;20021;-81
2021/01/22 04:13:26;;;;;;;4.80;0.90;;;;;;;10.00;92.57;97608.44;5223220;28;20033;-81
2021/01/22 04:15:57;;;;;;;2.38;0.90;;;;;;;9.96;93.04;97595.78;5223116;28;20059;-80
2021/01/22 04:18:28;;;;;;;3.65;0.82;;;;;;;9.94;93.10;97608.09;5222398;28;20391;-79
2021/01/22 04:20:58;;;;;;;2.83;0.90;;;;;;;9.97;92.70;97608.69;5222960;28;20033;-80
2021/01/22 04:23:29;;;;;;;4.78;0.88;;;;;;;9.88;93.05;97603.41;5222802;28;20155;-80
2021/01/22 04:25:59;;;;;;;1.52;0.85;;;;;;;9.82;93.65;97591.66;5222022;28;20028;-81
2021/01/22 04:28:30;;;;;;;3.47;0.95;;;;;;;9.76;93.80;97596.53;5224855;28;20029;-80
2021/01/22 04:31:00;;;;;;;4.63;0.82;;;;;;;9.71;93.73;97591.72;5225434;28;20023;-80
2021/01/22 04:33:30;;;;;;;4.72;1.10;;;;;;;9.84;93.03;97596.78;5210589;28;20029;-80
2021/01/22 04:36:01;;;;;;;2.22;0.68;;;;;;;9.83;93.04;97590.72;5224394;28;20462;-80
2021/01/22 04:38:31;;;;;;;3.75;0.82;;;;;;;9.83;92.97;97593.31;5223735;28;20017;-80
2021/01/22 04:41:02;;;;;;;1.40;0.70;;;;;;;9.75;93.23;97584.44;5225480;28;20025;-80
2021/01/22 04:43:32;;;;;;;4.05;0.60;;;;;;;9.82;93.39;97596.88;5224469;28;20028;-80
2021/01/22 04:46:02;;;;;;;2.70;0.80;;;;;;;9.78;92.94;97597.25;5223917;28;20044;-80
2021/01/22 04:48:33;;;;;;;2.78;0.80;;;;;;;9.84;93.25;97586.34;5224949;28;20021;-80
2021/01/22 04:51:04;;;;;;;2.03;0.90;;;;;;;9.93;92.25;97583.81;5225134;28;20074;-80
2021/01/22 04:53:36;;;;;;;1.95;0.60;;;;;;;9.96;92.00;97586.19;5224783;28;20021;-80
2021/01/22 04:56:08;;;;;;;2.88;0.85;;;;;;;10.00;91.73;97586.78;5225457;28;20035;-80
2021/01/22 04:58:42;;;;;;;2.42;0.57;;;;;;;10.04;90.81;97588.19;5205346;28;20036;-80
2021/01/22 05:01:13;;;;;;;3.15;0.65;;;;;;;10.13;90.39;97587.47;5225362;28;20024;-80
2021/01/22 05:03:43;;;;;;;3.08;0.70;;;;;;;10.16;89.92;97592.44;5226410;28;20099;-80
2021/01/22 05:06:15;;;;;;;3.35;0.70;;;;;;;10.20;90.17;97588.63;5206304;28;20020;-80
2021/01/22 05:08:45;;;;;;;4.72;0.90;;;;;;;10.20;89.35;97594.66;5224576;28;20025;-80
2021/01/22 05:11:15;;;;;;;1.70;0.52;;;;;;;10.41;88.05;97590.31;5222121;28;20028;-80
2021/01/22 05:13:46;;;;;;;1.65;0.55;;;;;;;10.45;87.40;97588.25;5223604;28;20117;-80
2021/01/22 05:16:16;;;;;;;1.55;0.40;;;;;;;10.57;87.21;97584.63;5222116;28;20040;-80
2021/01/22 05:18:47;;;;;;;3.70;0.60;;;;;;;10.59;86.72;97590.53;5223092;28;20024;-80
2021/01/22 05:21:19;;;;;;;1.38;0.35;;;;;;;10.52;87.46;97578.97;5225632;28;20124;-80
2021/01/22 05:23:49;;;;;;;0.70;0.30;;;;;;;10.51;87.71;97596.41;5226722;28;20025;-80
2021/01/22 05:26:20;;;;;;;1.27;0.40;;;;;;;10.57;87.67;97614.19;5227077;28;20522;-80
2021/01/22 05:28:50;;;;;;;1.67;0.43;;;;;;;10.50;88.59;97630.47;5227225;28;20032;-81
2021/01/22 05:31:30;;;;;;;2.50;0.60;;;;;;;10.55;88.10;97641.38;5231615;28;20024;-80
2021/01/22 05:34:00;;;;;;;2.72;0.50;;;;;;;10.58;88.04;97675.06;5210726;28;20505;-80
2021/01/22 05:36:32;;;;;;;2.63;0.55;;;;;;;9.92;90.25;97737.81;5226806;28;20136;-81
2021/01/22 05:39:03;;;;;;;4.78;0.43;;;;;;;8.99;96.33;97742.47;5225681;28;20086;-80
2021/01/22 05:41:34;;;;;;;3.63;0.50;;;;;;;8.60;99.85;97758.41;5227537;28;20032;-80
2021/01/22 05:44:05;;;;;;;3.15;0.80;;;;;;;8.03;100.00;97772.91;5219207;28;20395;-79
2021/01/22 05:46:35;;;;;;;7.57;0.90;;;;;;;7.79;100.00;97777.22;5225854;28;20025;-80
2021/01/22 05:49:07;;;;;;;7.72;0.85;;;;;;;7.70;100.00;97797.81;5224037;28;20479;-79
2021/01/22 05:51:38;;;;;;;6.63;1.08;;;;;;;7.56;100.00;97809.13;5224660;28;20021;-79
2021/01/22 05:54:08;;;;;;;3.05;0.40;;;;;;;7.49;100.00;97841.66;5206979;28;20032;-80
2021/01/22 05:56:55;;;;;;;3.28;0.52;;;;;;;7.31;100.00;97842.91;5206490;28;20028;-80
2021/01/22 05:59:25;;;;;;;1.65;0.20;;;;;;;6.92;100.00;97865.44;5216605;28;20064;-81
2021/01/22 06:01:56;;;;;;;0.03;0.00;;;;;;;6.70;100.00;97878.09;5229665;28;20052;-80
2021/01/22 06:04:26;;;;;;;0.38;0.10;;;;;;;6.46;100.00;97882.22;5223759;28;20032;-80
2021/01/22 06:06:56;;;;;;;1.30;0.17;;;;;;;6.35;100.00;97904.56;5224500;28;20029;-79
2021/01/22 06:09:31;;;;;;;0.10;0.10;;;;;;;6.23;100.00;97889.78;5223975;28;20036;-79
2021/01/22 06:12:02;;;;;;;0.20;0.10;;;;;;;6.13;100.00;97915.44;5220977;28;20024;-78
2021/01/22 06:14:37;;;;;;;0.20;0.10;;;;;;;6.11;100.00;97934.59;5222891;28;20068;-79
2021/01/22 06:17:07;;;;;;;0.13;0.10;;;;;;;6.04;100.00;97948.81;5206053;28;20159;-78
2021/01/22 06:19:40;;;;;;;0.28;0.10;;;;;;;6.02;100.00;97966.22;5222768;28;20454;-78
2021/01/22 06:22:22;;;;;;;1.08;0.20;;;;;;;5.93;100.00;97970.19;5222613;28;20033;-80
2021/01/22 06:24:52;;;;;;;0.50;0.20;;;;;;;5.85;100.00;97992.28;5223450;28;20499;-78
2021/01/22 06:27:23;;;;;;;0.30;0.20;;;;;;;5.87;100.00;97998.22;5223789;28;20029;-78
2021/01/22 06:29:55;;;;;;;0.38;0.20;;;;;;;5.77;100.00;98004.81;5224586;28;20033;-78
2021/01/22 06:32:28;;;;;;;0.38;0.10;;;;;;;5.68;100.00;98016.56;5227087;28;20479;-79
2021/01/22 06:34:59;;;;;;;0.20;0.20;;;;;;;5.73;100.00;98027.47;5221855;28;20037;-79
2021/01/22 06:37:30;;;;;;;1.90;0.60;;;;;;;5.68;100.00;98033.84;5222810;28;20028;-81
2021/01/22 06:40:03;;;;;;;0.80;0.28;;;;;;;5.68;100.00;98033.84;5223779;28;20029;-80
2021/01/22 06:42:37;;;;;;;0.45;0.20;;;;;;;5.56;100.00;98042.31;5223299;28;20507;-82
2021/01/22 06:45:07;;;;;;;1.15;0.40;;;;;;;5.63;100.00;98043.63;5218787;28;20530;-78
2021/01/22 06:47:38;;;;;;;2.72;1.13;;;;;;;5.57;100.00;98051.75;5222626;28;20021;-79
2021/01/22 06:50:21;;;;;;;0.82;0.30;;;;;;;5.61;100.00;98061.00;5222880;28;20418;-79
2021/01/22 06:53:11;;;;;;;1.35;0.40;;;;;;;5.62;100.00;98075.63;5222842;28;20021;-78
2021/01/22 06:55:53;;;;;;;1.65;0.52;;;;;;;5.70;100.00;98081.22;5219055;28;20025;-80
2021/01/22 06:58:33;;;;;;;1.88;0.22;;;;;;;5.67;100.00;98091.75;5223230;28;20036;-81
2021/01/22 07:01:24;;;;;;;2.30;0.45;;;;;;;5.65;100.00;98106.53;5222938;28;20029;-80
2021/01/22 07:03:54;;;;;;;3.28;0.50;;;;;;;5.62;100.00;98119.66;5223533;28;20035;-78
2021/01/22 07:06:30;;;;;;;1.35;0.50;;;;;;;5.69;100.00;98131.34;5223228;28;20115;-79
2021/01/22 07:09:01;;;;;;;1.95;0.70;;;;;;;5.68;100.00;98127.09;5223115;28;20494;-79
2021/01/22 07:12:04;;;;;;;1.45;0.55;;;;;;;5.69;100.00;98126.16;5223491;28;20044;-80
2021/01/22 07:14:42;;;;;;;2.25;0.55;;;;;;;5.63;100.00;98121.34;5198327;28;20288;-79
2021/01/22 07:17:14;;;;;;;0.88;0.30;;;;;;;5.68;100.00;98121.91;5222530;28;20115;-79
2021/01/22 07:19:59;;;;;;;3.10;0.60;;;;;;;5.50;100.00;98130.69;5223081;28;20024;-78
2021/01/22 07:22:31;;;;;;;1.30;0.40;;;;;;;5.58;100.00;98119.00;5220404;28;20422;-79
2021/01/22 07:25:04;;;;;;;1.70;0.50;;;;;;;5.67;100.00;98123.69;5222577;28;20025;-80
2021/01/22 07:27:42;;;;;;;0.75;0.40;;;;;;;5.72;100.00;98128.63;5222458;28;20059;-80
2021/01/22 07:30:13;;;;;;;1.65;0.40;;;;;;;5.68;100.00;98133.13;5223198;28;20091;-78
2021/01/22 07:32:48;;;;;;;1.40;0.57;;;;;;;5.67;100.00;98123.69;5228956;28;20051;-78
2021/01/22 07:35:21;;;;;;;0.75;0.50;;;;;;;5.87;100.00;98120.84;5216504;28;20036;-78
2021/01/22 07:37:52;;;;;;;1.98;0.50;;;;;;;5.73;100.00;98135.47;5222534;28;20029;-78
2021/01/22 07:40:22;;;;;;;2.05;0.70;;;;;;;5.73;100.00;98148.44;5222224;28;20021;-78
2021/01/22 07:42:52;;;;;;;1.08;0.40;;;;;;;5.79;100.00;98142.94;5222931;28;20017;-78
2021/01/22 07:45:23;;;;;;;2.75;0.60;;;;;;;5.76;100.00;98149.06;5227124;28;20054;-79
2021/01/22 07:47:53;;;;;;;1.52;0.60;;;;;;;5.74;100.00;98137.13;5220792;28;20074;-78
2021/01/22 07:50:23;;;;;;;1.65;0.70;;;;;;;5.70;100.00;98149.41;5220878;28;20139;-79
2021/01/22 07:52:54;;;;;;;1.42;0.50;;;;;;;5.76;100.00;98158.63;5221283;28;20183;-81
2021/01/22 07:55:24;;;;;;;0.80;0.45;;;;;;;5.72;100.00;98172.66;5221636;28;20083;-80
2021/01/22 07:58:03;;;;;;;1.52;0.45;;;;;;;5.68;100.00;98176.31;5222059;28;20032;-81
2021/01/22 08:00:40;;;;;;;2.03;0.70;;;;;;;5.58;100.00;98165.63;5221848;28;20062;-78
2021/01/22 08:03:13;;;;;;;0.68;0.50;;;;;;;5.71;100.00;98173.59;5228075;28;20411;-78
2021/01/22 08:05:43;;;;;;;2.17;0.50;;;;;;;5.69;100.00;98178.84;5224362;28;20104;-81
2021/01/22 08:08:19;;;;;;;0.75;0.50;;;;;;;5.83;100.00;98188.47;5221641;28;20104;-79
2021/01/22 08:10:49;;;;;;;1.70;0.47;;;;;;;5.84;100.00;98187.53;5221069;28;20033;-79
2021/01/22 08:13:20;;;;;;;1.05;0.55;;;;;;;5.81;100.00;98190.31;5219886;28;20027;-79
2021/01/22 08:16:03;;;;;;;1.50;0.63;;;;;;;5.86;100.00;98190.88;5221840;28;20039;-79
2021/01/22 08:18:34;;;;;;;1.55;0.52;;;;;;;5.87;100.00;98192.56;5223012;28;20029;-79
2021/01/22 08:21:04;;;;;;;0.75;0.50;;;;;;;5.87;100.00;98193.41;5222070;28;20028;-79
2021/01/22 08:23:35;;;;;;;1.48;0.50;;;;;;;5.92;100.00;98206.13;5221698;28;20029;-78
2021/01/22 08:26:05;;;;;;;1.60;0.50;;;;;;;5.99;100.00;98197.94;5221612;28;20055;-78
2021/01/22 08:28:37;;;;;;;1.35;0.60;;;;;;;5.92;100.00;98200.94;5222523;28;20425;-79
2021/01/22 08:31:08;;;;;;;1.38;0.57;;;;;;;5.87;100.00;98185.63;5224372;28;20031;-79
2021/01/22 08:33:39;;;;;;;0.93;0.40;;;;;;;5.94;100.00;98186.13;5223872;28;20097;-78
2021/01/22 08:36:10;;;;;;;0.63;0.43;;;;;;;5.96;100.00;98192.91;5222402;28;20422;-79
2021/01/22 08:38:40;;;;;;;3.00;1.45;;;;;;;5.86;100.00;98191.75;5222748;28;20082;-78
2021/01/22 08:41:27;;;;;;;3.92;1.73;;;;;;;6.04;99.94;98208.88;5220897;28;20092;-79
2021/01/22 08:43:58;;;;;;;3.85;1.40;;;;;;;6.03;98.96;98202.00;5223526;28;20082;-79
2021/01/22 08:46:28;;;;;;;5.38;1.90;;;;;;;5.99;98.70;98212.63;5221416;28;20104;-81
2021/01/22 08:49:10;;;;;;;5.78;1.60;;;;;;;6.15;98.80;98216.91;5221721;28;20458;-80
2021/01/22 08:51:41;;;;;;;5.32;1.70;;;;;;;6.04;99.20;98231.34;5223908;28;20028;-80
2021/01/22 08:54:12;;;;;;;6.13;1.70;;;;;;;5.94;100.00;98236.19;5223350;28;20396;-81
2021/01/22 08:56:42;;;;;;;3.90;1.48;;;;;;;6.04;100.00;98241.72;5227683;28;20028;-81
2021/01/22 08:59:13;;;;;;;4.63;1.60;;;;;;;6.19;99.45;98244.31;5227748;28;20025;-81
2021/01/22 09:01:58;;;;;;;4.43;1.60;;;;;;;6.19;99.43;98235.69;5233211;28;20119;-80
2021/01/22 09:04:33;;;;;;;5.37;1.53;;;;;;;6.46;98.49;98244.53;5228137;28;20108;-80
2021/01/22 09:07:05;;;;;;;3.45;1.25;;;;;;;6.47;98.10;98231.50;5228599;28;20021;-81
2021/01/22 09:09:43;;;;;;;3.65;1.45;;;;;;;6.56;98.56;98230.94;5222456;28;20052;-81
2021/01/22 09:12:19;;;;;;;5.07;1.30;;;;;;;6.64;97.53;98241.75;5223691;28;20479;-80
2021/01/22 09:14:59;;;;;;;4.32;1.00;;;;;;;6.37;98.41;98245.03;5225653;28;20032;-82
2021/01/22 09:17:49;;;;;;;3.40;1.40;;;;;;;6.51;97.99;98247.69;5226573;28;20059;-81
2021/01/22 09:20:22;;;;;;;4.22;1.80;;;;;;;6.44;98.15;98251.56;5225099;28;20021;-80
2021/01/22 09:22:54;;;;;;;2.42;1.00;;;;;;;6.51;98.24;98258.94;5225481;28;20103;-80
2021/01/22 09:25:26;;;;;;;3.38;1.25;;;;;;;6.60;96.97;98270.53;5225058;28;20025;-81
2021/01/22 09:27:56;;;;;;;3.42;1.10;;;;;;;6.65;97.74;98263.31;5207718;28;20562;-79
2021/01/22 09:30:28;;;;;;;3.35;0.90;;;;;;;6.57;97.90;98258.56;5226320;28;20109;-80
2021/01/22 09:33:00;;;;;;;2.05;0.82;;;;;;;6.50;98.13;98262.44;5226370;28;20013;-78
2021/01/22 09:35:30;;;;;;;2.25;1.10;;;;;;;6.78;96.48;98270.31;5230004;28;20028;-81
2021/01/22 09:38:01;;;;;;;4.00;1.13;;;;;;;6.91;96.26;98271.28;5224458;28;20071;-81
2021/01/22 09:40:31;;;;;;;5.20;1.48;;;;;;;6.65;96.44;98276.31;5225115;28;20025;-81
2021/01/22 09:43:03;;;;;;;5.95;1.60;;;;;;;6.63;95.94;98284.16;5225167;28;20025;-79
2021/01/22 09:45:33;;;;;;;5.15;1.60;;;;;;;6.59;96.52;98276.66;5224974;28;20029;-81
2021/01/22 09:48:04;;;;;;;3.13;1.40;;;;;;;6.61;96.58;98280.00;5226526;28;20434;-82
2021/01/22 09:50:34;;;;;;;3.53;1.50;;;;;;;6.51;97.32;98287.47;5224836;28;20100;-81
2021/01/22 09:53:04;;;;;;;3.55;1.33;;;;;;;6.63;96.97;98278.16;5227047;28;20032;-79
2021/01/22 09:55:35;;;;;;;4.97;1.33;;;;;;;6.57;96.27;98278.50;5224702;28;20686;-80
2021/01/22 09:58:05;;;;;;;3.92;1.23;;;;;;;6.58;95.30;98274.97;5226179;28;20036;-81
2021/01/22 10:00:35;;;;;;;6.38;1.80;;;;;;;6.63;96.20;98293.72;5226116;28;20430;-81
2021/01/22 10:03:05;;;;;;;4.63;2.20;;;;;;;6.72;96.51;98303.56;5232025;28;20098;-82
2021/01/22 10:05:36;;;;;;;7.00;2.10;;;;;;;6.69;94.80;98308.94;5226086;28;20037;-81
2021/01/22 10:08:06;;;;;;;4.65;1.85;;;;;;;6.69;96.09;98303.75;5226017;28;20132;-79
2021/01/22 10:10:36;;;;;;;4.18;1.52;;;;;;;6.72;95.02;98299.22;5227227;28;20507;-80
2021/01/22 10:13:07;;;;;;;5.10;1.90;;;;;;;6.86;94.60;98301.03;5225875;28;20049;-81
2021/01/22 10:15:37;;;;;;;2.85;1.40;;;;;;;6.65;95.97;98317.81;5226374;28;20372;-80
2021/01/22 10:18:07;;;;;;;4.88;1.50;;;;;;;6.72;95.17;98329.50;5221668;28;20032;-80
2021/01/22 10:20:37;;;;;;;3.28;1.30;;;;;;;6.75;94.82;98329.38;5226131;28;20035;-80
2021/01/22 10:23:08;;;;;;;4.85;1.88;;;;;;;6.74;94.64;98332.88;5226038;28;20033;-80
2021/01/22 10:25:38;;;;;;;3.78;1.48;;;;;;;6.63;95.59;98325.69;5226944;28;20098;-78
2021/01/22 10:28:08;;;;;;;3.97;1.63;;;;;;;6.67;94.61;98327.19;5228614;28;20024;-80
2021/01/22 10:30:39;;;;;;;5.00;1.70;;;;;;;6.74;93.63;98322.50;5225840;28;20430;-80
2021/01/22 10:33:09;;;;;;;5.13;2.00;;;;;;;6.87;93.78;98323.47;5232951;28;20020;-81
2021/01/22 10:35:39;;;;;;;6.07;2.13;;;;;;;7.03;93.91;98319.06;5226348;28;20028;-82
2021/01/22 10:38:11;;;;;;;4.35;1.70;;;;;;;6.87;94.57;98313.94;5225216;28;20416;-79
2021/01/22 10:40:41;;;;;;;4.65;2.00;;;;;;;7.02;93.76;98312.22;5227023;28;20025;-80
2021/01/22 10:43:12;;;;;;;4.85;1.67;;;;;;;6.90;94.58;98308.56;5226342;28;20035;-81
2021/01/22 10:45:42;;;;;;;4.50;1.85;;;;;;;6.86;95.27;98311.41;5223930;28;20021;-81
2021/01/22 10:48:12;;;;;;;4.72;1.65;;;;;;;7.02;93.36;98317.41;5224472;28;20075;-80
2021/01/22 10:50:43;;;;;;;3.05;1.60;;;;;;;6.94;93.68;98322.22;5223800;28;20629;-81
2021/01/22 10:53:14;;;;;;;5.93;2.28;;;;;;;6.90;95.16;98318.94;5206174;28;20020;-81
2021/01/22 10:55:45;;;;;;;10.85;2.50;;;;;;;6.95;92.60;98326.47;5223783;28;20052;-79
2021/01/22 10:58:16;;;;;;;5.35;2.40;;;;;;;7.11;92.66;98332.47;5223680;28;20040;-81
2021/01/22 11:00:47;;;;;;;7.60;2.47;;;;;;;7.11;92.29;98327.28;5225739;28;20029;-81
2021/01/22 11:03:17;;;;;;;6.00;2.33;;;;;;;7.08;92.21;98337.84;5228306;28;20029;-81
2021/01/22 11:05:47;;;;;;;7.28;2.72;;;;;;;7.03;91.88;98335.50;5206265;28;20116;-81
2021/01/22 11:08:17;;;;;;;6.47;2.70;;;;;;;7.07;91.43;98328.38;5223547;28;20606;-81
2021/01/22 11:10:49;;;;;;;9.05;3.13;;;;;;;7.22;90.32;98330.06;5222922;28;20128;-81
2021/01/22 11:13:19;;;;;;;9.35;3.15;;;;;;;6.97;90.93;98328.03;5221620;28;20067;-80
2021/01/22 11:15:49;;;;;;;8.43;2.75;;;;;;;7.02;90.50;98328.63;5204792;28;20029;-81
2021/01/22 11:18:20;;;;;;;8.68;2.85;;;;;;;7.12;90.87;98328.94;5223164;28;20059;-81
2021/01/22 11:20:50;;;;;;;7.68;3.10;;;;;;;6.98;90.45;98326.31;5223616;28;20067;-80
2021/01/22 11:23:20;;;;;;;11.00;3.30;;;;;;;7.12;91.82;98326.34;5223148;28;20078;-81
2021/01/22 11:25:51;;;;;;;7.47;3.35;;;;;;;7.18;90.85;98328.59;5205533;28;20492;-81
2021/01/22 11:28:21;;;;;;;6.95;3.20;;;;;;;7.19;90.78;98330.25;5223175;28;20136;-80
2021/01/22 11:30:51;;;;;;;6.47;2.90;;;;;;;7.19;91.11;98338.91;5222003;28;20029;-79
2021/01/22 11:33:22;;;;;;;9.10;3.55;;;;;;;7.20;91.87;98357.91;5225588;28;20070;-80
2021/01/22 11:35:52;;;;;;;11.38;4.07;;;;;;;7.36;92.80;98349.16;5216857;28;20020;-80
2021/01/22 11:38:22;;;;;;;11.50;4.10;;;;;;;7.50;91.13;98346.59;5222672;28;20020;-80
2021/01/22 11:40:52;;;;;;;8.05;3.85;;;;;;;7.44;90.21;98342.56;5222921;28;20028;-80
2021/01/22 11:43:23;;;;;;;8.90;3.63;;;;;;;7.40;91.90;98361.03;5221285;28;20033;-80
2021/01/22 11:45:53;;;;;;;6.25;2.60;;;;;;;7.41;91.23;98357.50;5222417;28;20055;-79
2021/01/22 11:48:23;;;;;;;6.60;2.75;;;;;;;7.43;91.10;98363.44;5221762;28;20025;-81
2021/01/22 11:50:54;;;;;;;8.13;3.17;;;;;;;7.44;91.64;98352.97;5221498;28;20028;-80
2021/01/22 11:53:24;;;;;;;7.13;3.00;;;;;;;7.53;88.83;98359.38;5222541;28;20492;-79
2021/01/22 11:55:54;;;;;;;6.65;2.42;;;;;;;7.31;89.02;98357.19;5221596;28;20491;-79
2021/01/22 11:58:24;;;;;;;6.80;2.35;;;;;;;7.42;88.60;98353.97;5222098;28;20021;-81
2021/01/22 12:00:55;;;;;;;8.88;2.70;;;;;;;7.52;89.15;98361.13;5226655;28;20027;-81